Mct Breithorn — HBHC — position and weather

sailwx.info

Track history (hours):
 
Tides and Currents Weather Stations Pressure Air Temp Water Temp Dewpoint Dewpoint Depression Visibility Wind Speed Wind Dir Waves Ship Positions

Mct Breithorn

Last reported at 2014-Jun-16 06:21 UTC. Time now 2014-Aug-28 07:22 UTC.
Position N 50°11' W 001°53'.
Warning: this ship's position is months out of date.

Length 165 m; draft 10 m.

Type: Tanker. MMSI: 269848000.

Date/timePositionNaut miles runAvg speedWind from/ knotsBaromVisibWave heightAir tempDewpointWater temp
2014-Jun-16 06:21N 50°11' W 001°53'1814.8
2014-Jun-16 05:08N 50°16' W 001°26'915.9
2014-Jun-16 04:34N 50°19' W 001°12'1816.4
2014-Jun-16 03:26N 50°24' W 000°45'4013.4
2014-Jun-16 00:26N 50°34' E 000°16'1010.9
2014-Jun-15 23:33N 50°37' E 000°31'1110.6
2014-Jun-15 22:33N 50°42' E 000°45'1211.9
2014-Jun-15 21:33N 50°49' E 001°00'1414.0
2014-Jun-15 20:32N 50°59' E 001°17'1515.2
2014-Jun-15 19:34N 51°08' E 001°36'1413.5
2014-Jun-15 18:34N 51°19' E 001°50'1211.9
2014-Jun-15 17:33N 51°29' E 001°59'1111.0
2014-Jun-15 16:33N 51°37' E 002°11'4711.2
2014-Jun-15 12:20N 52°13' E 003°01'1213.5
2014-Jun-15 11:27N 52°22' E 003°14'1313.6
2014-Jun-15 10:28N 52°30' E 003°31'1212.6
2014-Jun-15 09:32N 52°31' E 003°50'1212.4
2014-Jun-15 08:33N 52°31' E 004°10'1211.8
2014-Jun-15 07:33N 52°29' E 004°29'5 4.8
2014-Jun-15 06:34N 52°28' E 004°37'6 6.0
2014-Jun-15 05:34N 52°26' E 004°46'1 0.9
2014-Jun-15 04:28N 52°25' E 004°47'0 0.0
2014-Jun-15 03:30N 52°25' E 004°47'0 0.0
2014-Jun-15 02:30N 52°25' E 004°47'0 0.0
2014-Jun-15 01:28N 52°25' E 004°47'0 0.0
2014-Jun-15 00:30N 52°25' E 004°47'0 0.0
2014-Jun-14 23:28N 52°25' E 004°47'0 0.0
2014-Jun-14 22:30N 52°25' E 004°47'0 0.0
2014-Jun-14 21:30N 52°25' E 004°47'0 0.0
2014-Jun-14 20:30N 52°25' E 004°47'0 0.0
2014-Jun-14 19:30N 52°25' E 004°47'0 0.0
2014-Jun-14 18:30N 52°25' E 004°47'0 0.0
2014-Jun-14 17:30N 52°25' E 004°47'0 0.0
2014-Jun-14 16:30N 52°25' E 004°47'0 0.0
2014-Jun-14 15:30N 52°25' E 004°47'0 0.0
2014-Jun-14 14:28N 52°25' E 004°47'0 0.0
2014-Jun-14 13:24N 52°25' E 004°47'0 0.0
2014-Jun-14 12:30N 52°25' E 004°47'0 0.0
2014-Jun-14 11:28N 52°25' E 004°47'0 0.0
2014-Jun-14 10:30N 52°25' E 004°47'0 0.0
2014-Jun-14 09:30N 52°25' E 004°47'0 0.0
2014-Jun-14 08:24N 52°25' E 004°47'0 0.0
2014-Jun-14 07:30N 52°25' E 004°47'0 0.0
2014-Jun-14 06:30N 52°25' E 004°47'0 0.0
2014-Jun-14 05:30N 52°25' E 004°47'0 0.0
2014-Jun-14 04:18N 52°25' E 004°47'0 0.0
2014-Jun-14 03:30N 52°25' E 004°47'0 0.0
2014-Jun-14 02:28N 52°25' E 004°47'0 0.0
2014-Jun-14 01:24N 52°25' E 004°47'0 0.0
2014-Jun-14 00:34N 52°25' E 004°47'0 0.0
2014-Jun-13 23:28N 52°25' E 004°47'0 0.0
2014-Jun-13 22:24N 52°25' E 004°47'0 0.0
2014-Jun-13 21:30N 52°25' E 004°47'0 0.0
2014-Jun-13 20:28N 52°25' E 004°47'0 0.0
2014-Jun-13 19:30N 52°25' E 004°47'0 0.0
2014-Jun-13 18:30N 52°25' E 004°47'0 0.0
2014-Jun-13 17:30N 52°25' E 004°47'0 0.0
2014-Jun-13 16:30N 52°25' E 004°47'1 1.3
2014-Jun-13 15:34N 52°26' E 004°45'6 5.9
2014-Jun-13 14:34N 52°28' E 004°36'6 5.6
2014-Jun-13 13:33N 52°29' E 004°27'1312.7
2014-Jun-13 12:33N 52°29' E 004°06'1414.3
2014-Jun-13 11:33N 52°25' E 003°44'1414.0
2014-Jun-13 10:33N 52°20' E 003°22'28 1.0
2014-Jun-12 07:11N 52°05' E 002°44'0 0.0
2014-Jun-12 05:32N 52°05' E 002°44'0 0.1
2014-Jun-12 04:32N 52°05' E 002°44'0 0.0
2014-Jun-12 03:23N 52°05' E 002°44'0 0.0
2014-Jun-11 12:11N 52°05' E 002°44'0 0.0
2014-Jun-11 11:32N 52°05' E 002°44'0 0.0
2014-Jun-10 23:11N 52°05' E 002°44'0 0.0
2014-Jun-10 17:26N 52°05' E 002°44'0 0.1
2014-Jun-10 16:05N 52°05' E 002°44'0 0.0
2014-Jun-10 14:17N 52°05' E 002°44'0 0.0
2014-Jun-10 13:32N 52°05' E 002°44'0 0.0
2014-Jun-10 12:32N 52°05' E 002°44'0 0.0
2014-Jun-09 01:17N 52°05' E 002°44'0 0.0
2014-Jun-08 21:11N 52°05' E 002°44'0 0.1
2014-Jun-08 20:11N 52°05' E 002°44'0 0.0
2014-Jun-08 17:29N 52°05' E 002°44'0 0.0
2014-Jun-08 16:05N 52°05' E 002°44'20 0.7
2014-Jun-07 12:32N 51°46' E 002°57'0 0.1
2014-Jun-07 11:32N 51°46' E 002°57'0 0.0
2014-Jun-07 09:26N 51°46' E 002°57'0 0.0
2014-Jun-07 08:32N 51°46' E 002°57'0 0.0
2014-Jun-07 07:05N 51°46' E 002°57'0 0.1
2014-Jun-07 06:32N 51°46' E 002°56'0 0.1
2014-Jun-07 05:32N 51°46' E 002°56'0 0.0
2014-Jun-07 03:26N 51°46' E 002°56'0 0.0
2014-Jun-07 02:32N 51°46' E 002°56'0 0.0
2014-Jun-07 01:26N 51°46' E 002°56'0 0.0
2014-Jun-07 00:32N 51°46' E 002°56'0 0.0
2014-Jun-06 23:32N 51°46' E 002°56'0 0.0
2014-Jun-06 21:29N 51°46' E 002°56'0 0.0
2014-Jun-06 20:32N 51°46' E 002°56'0 0.0
2014-Jun-06 19:32N 51°46' E 002°56'0 0.1
2014-Jun-06 18:32N 51°46' E 002°56'0 0.0
2014-Jun-06 17:29N 51°46' E 002°56'0 0.0
2014-Jun-06 16:23N 51°46' E 002°56'0 0.0
2014-Jun-06 15:20N 51°46' E 002°57'0 0.0
2014-Jun-06 14:32N 51°46' E 002°56'3 2.7
2014-Jun-06 13:33N 51°45' E 003°01'1413.3
2014-Jun-06 12:33N 51°39' E 003°20'1312.9
2014-Jun-06 11:33N 51°28' E 003°31'1212.2
2014-Jun-06 10:34N 51°21' E 003°47'1010.1
2014-Jun-06 09:33N 51°23' E 004°03'9 8.9
2014-Jun-06 08:33N 51°21' E 004°17'1 0.5
2014-Jun-06 07:26N 51°20' E 004°18'5 5.9
2014-Jun-06 06:32N 51°16' E 004°22'  
Track history (hours):
 
Tides and Currents Weather Stations Pressure Air Temp Water Temp Dewpoint Dewpoint Depression Visibility Wind Speed Wind Dir Waves Ship Positions

Mct Breithorn

Last reported at 2014-Jun-16 06:21 UTC. Time now 2014-Aug-28 07:22 UTC.
Position N 50°11' W 001°53'.
Warning: this ship's position is months out of date.

Length 165 m; draft 10 m.

Type: Tanker. MMSI: 269848000.

Date/timePositionNaut miles runAvg speedWind from/ knotsBaromVisibWave heightAir tempDewpointWater temp
2014-Jun-16 06:21N 50°11' W 001°53'1814.8
2014-Jun-16 05:08N 50°16' W 001°26'915.9
2014-Jun-16 04:34N 50°19' W 001°12'1816.4
2014-Jun-16 03:26N 50°24' W 000°45'4013.4
2014-Jun-16 00:26N 50°34' E 000°16'1010.9
2014-Jun-15 23:33N 50°37' E 000°31'1110.6
2014-Jun-15 22:33N 50°42' E 000°45'1211.9
2014-Jun-15 21:33N 50°49' E 001°00'1414.0
2014-Jun-15 20:32N 50°59' E 001°17'1515.2
2014-Jun-15 19:34N 51°08' E 001°36'1413.5
2014-Jun-15 18:34N 51°19' E 001°50'1211.9
2014-Jun-15 17:33N 51°29' E 001°59'1111.0
2014-Jun-15 16:33N 51°37' E 002°11'4711.2
2014-Jun-15 12:20N 52°13' E 003°01'1213.5
2014-Jun-15 11:27N 52°22' E 003°14'1313.6
2014-Jun-15 10:28N 52°30' E 003°31'1212.6
2014-Jun-15 09:32N 52°31' E 003°50'1212.4
2014-Jun-15 08:33N 52°31' E 004°10'1211.8
2014-Jun-15 07:33N 52°29' E 004°29'5 4.8
2014-Jun-15 06:34N 52°28' E 004°37'6 6.0
2014-Jun-15 05:34N 52°26' E 004°46'1 0.9
2014-Jun-15 04:28N 52°25' E 004°47'0 0.0
2014-Jun-15 03:30N 52°25' E 004°47'0 0.0
2014-Jun-15 02:30N 52°25' E 004°47'0 0.0
2014-Jun-15 01:28N 52°25' E 004°47'0 0.0
2014-Jun-15 00:30N 52°25' E 004°47'0 0.0
2014-Jun-14 23:28N 52°25' E 004°47'0 0.0
2014-Jun-14 22:30N 52°25' E 004°47'0 0.0
2014-Jun-14 21:30N 52°25' E 004°47'0 0.0
2014-Jun-14 20:30N 52°25' E 004°47'0 0.0
2014-Jun-14 19:30N 52°25' E 004°47'0 0.0
2014-Jun-14 18:30N 52°25' E 004°47'0 0.0
2014-Jun-14 17:30N 52°25' E 004°47'0 0.0
2014-Jun-14 16:30N 52°25' E 004°47'0 0.0
2014-Jun-14 15:30N 52°25' E 004°47'0 0.0
2014-Jun-14 14:28N 52°25' E 004°47'0 0.0
2014-Jun-14 13:24N 52°25' E 004°47'0 0.0
2014-Jun-14 12:30N 52°25' E 004°47'0 0.0
2014-Jun-14 11:28N 52°25' E 004°47'0 0.0
2014-Jun-14 10:30N 52°25' E 004°47'0 0.0
2014-Jun-14 09:30N 52°25' E 004°47'0 0.0
2014-Jun-14 08:24N 52°25' E 004°47'0 0.0
2014-Jun-14 07:30N 52°25' E 004°47'0 0.0
2014-Jun-14 06:30N 52°25' E 004°47'0 0.0
2014-Jun-14 05:30N 52°25' E 004°47'0 0.0
2014-Jun-14 04:18N 52°25' E 004°47'0 0.0
2014-Jun-14 03:30N 52°25' E 004°47'0 0.0
2014-Jun-14 02:28N 52°25' E 004°47'0 0.0
2014-Jun-14 01:24N 52°25' E 004°47'0 0.0
2014-Jun-14 00:34N 52°25' E 004°47'0 0.0
2014-Jun-13 23:28N 52°25' E 004°47'0 0.0
2014-Jun-13 22:24N 52°25' E 004°47'0 0.0
2014-Jun-13 21:30N 52°25' E 004°47'0 0.0
2014-Jun-13 20:28N 52°25' E 004°47'0 0.0
2014-Jun-13 19:30N 52°25' E 004°47'0 0.0
2014-Jun-13 18:30N 52°25' E 004°47'0 0.0
2014-Jun-13 17:30N 52°25' E 004°47'0 0.0
2014-Jun-13 16:30N 52°25' E 004°47'1 1.3
2014-Jun-13 15:34N 52°26' E 004°45'6 5.9
2014-Jun-13 14:34N 52°28' E 004°36'6 5.6
2014-Jun-13 13:33N 52°29' E 004°27'1312.7
2014-Jun-13 12:33N 52°29' E 004°06'1414.3
2014-Jun-13 11:33N 52°25' E 003°44'1414.0
2014-Jun-13 10:33N 52°20' E 003°22'28 1.0
2014-Jun-12 07:11N 52°05' E 002°44'0 0.0
2014-Jun-12 05:32N 52°05' E 002°44'0 0.1
2014-Jun-12 04:32N 52°05' E 002°44'0 0.0
2014-Jun-12 03:23N 52°05' E 002°44'0 0.0
2014-Jun-11 12:11N 52°05' E 002°44'0 0.0
2014-Jun-11 11:32N 52°05' E 002°44'0 0.0
2014-Jun-10 23:11N 52°05' E 002°44'0 0.0
2014-Jun-10 17:26N 52°05' E 002°44'0 0.1
2014-Jun-10 16:05N 52°05' E 002°44'0 0.0
2014-Jun-10 14:17N 52°05' E 002°44'0 0.0
2014-Jun-10 13:32N 52°05' E 002°44'0 0.0
2014-Jun-10 12:32N 52°05' E 002°44'0 0.0
2014-Jun-09 01:17N 52°05' E 002°44'0 0.0
2014-Jun-08 21:11N 52°05' E 002°44'0 0.1
2014-Jun-08 20:11N 52°05' E 002°44'0 0.0
2014-Jun-08 17:29N 52°05' E 002°44'0 0.0
2014-Jun-08 16:05N 52°05' E 002°44'20 0.7
2014-Jun-07 12:32N 51°46' E 002°57'0 0.1
2014-Jun-07 11:32N 51°46' E 002°57'0 0.0
2014-Jun-07 09:26N 51°46' E 002°57'0 0.0
2014-Jun-07 08:32N 51°46' E 002°57'0 0.0
2014-Jun-07 07:05N 51°46' E 002°57'0 0.1
2014-Jun-07 06:32N 51°46' E 002°56'0 0.1
2014-Jun-07 05:32N 51°46' E 002°56'0 0.0
2014-Jun-07 03:26N 51°46' E 002°56'0 0.0
2014-Jun-07 02:32N 51°46' E 002°56'0 0.0
2014-Jun-07 01:26N 51°46' E 002°56'0 0.0
2014-Jun-07 00:32N 51°46' E 002°56'0 0.0
2014-Jun-06 23:32N 51°46' E 002°56'0 0.0
2014-Jun-06 21:29N 51°46' E 002°56'0 0.0
2014-Jun-06 20:32N 51°46' E 002°56'0 0.0
2014-Jun-06 19:32N 51°46' E 002°56'0 0.1
2014-Jun-06 18:32N 51°46' E 002°56'0 0.0
2014-Jun-06 17:29N 51°46' E 002°56'0 0.0
2014-Jun-06 16:23N 51°46' E 002°56'0 0.0
2014-Jun-06 15:20N 51°46' E 002°57'0 0.0
2014-Jun-06 14:32N 51°46' E 002°56'3 2.7
2014-Jun-06 13:33N 51°45' E 003°01'1413.3
2014-Jun-06 12:33N 51°39' E 003°20'1312.9
2014-Jun-06 11:33N 51°28' E 003°31'1212.2
2014-Jun-06 10:34N 51°21' E 003°47'1010.1
2014-Jun-06 09:33N 51°23' E 004°03'9 8.9
2014-Jun-06 08:33N 51°21' E 004°17'1 0.5
2014-Jun-06 07:26N 51°20' E 004°18'5 5.9
2014-Jun-06 06:32N 51°16' E 004°22'  

Dump ship's entire track history